createdAt,value
2023-01-19T00:02:35.020Z,10.40
2023-01-19T00:07:37.181Z,10.48
2023-01-19T00:12:39.353Z,11.77
2023-01-19T00:22:44.490Z,11.65
2023-01-19T00:27:49.368Z,16.35
2023-01-19T00:32:51.538Z,14.70
2023-01-19T00:42:55.770Z,12.20
2023-01-19T00:53:03.774Z,11.40
2023-01-19T00:58:07.206Z,11.43
2023-01-19T01:03:10.094Z,12.97
2023-01-19T01:08:12.280Z,11.83
2023-01-19T01:18:26.307Z,9.57
2023-01-19T01:23:28.422Z,10.30
2023-01-19T01:33:40.835Z,8.97
2023-01-19T01:38:43.795Z,12.10
2023-01-19T01:49:27.405Z,7.93
2023-01-19T01:54:33.213Z,13.17
2023-01-19T01:59:41.055Z,17.30
2023-01-19T02:04:58.283Z,12.07
2023-01-19T02:10:18.915Z,9.70
2023-01-19T02:15:21.186Z,11.77
2023-01-19T02:20:27.759Z,10.20
2023-01-19T02:25:30.384Z,14.07
2023-01-19T02:30:33.814Z,21.83
2023-01-19T02:35:38.187Z,11.57
2023-01-19T02:40:42.636Z,13.43
2023-01-19T02:45:45.829Z,9.23
2023-01-19T02:50:53.036Z,10.10
2023-01-19T02:56:23.352Z,9.57
2023-01-19T03:01:43.514Z,10.70
2023-01-19T03:07:16.530Z,12.07
2023-01-19T03:12:21.638Z,15.18
2023-01-19T03:17:26.071Z,12.67
2023-01-19T03:22:29.803Z,12.10
2023-01-19T03:27:40.678Z,14.40
2023-01-19T03:32:58.603Z,11.80
2023-01-19T03:38:08.672Z,11.23
2023-01-19T03:43:12.744Z,8.30
2023-01-19T03:48:14.904Z,16.07
2023-01-19T03:58:19.460Z,12.90
2023-01-19T04:08:23.506Z,12.80
2023-01-19T04:13:28.072Z,14.18
2023-01-19T04:18:33.732Z,16.60
2023-01-19T04:23:36.003Z,12.90
2023-01-19T04:33:40.196Z,12.67
2023-01-19T04:43:44.827Z,14.48
2023-01-19T04:48:46.863Z,14.30
2023-01-19T04:53:48.938Z,12.70
2023-01-19T04:58:51.044Z,14.05
2023-01-19T05:03:53.100Z,15.07
2023-01-19T05:08:55.211Z,14.55
2023-01-19T05:13:57.220Z,10.50
2023-01-19T05:18:59.693Z,10.80
2023-01-19T05:24:01.809Z,11.50
2023-01-19T05:29:03.999Z,15.52
2023-01-19T05:39:08.594Z,12.13
2023-01-19T05:44:11.120Z,11.87
2023-01-19T05:49:13.365Z,12.50
2023-01-19T05:59:23.849Z,13.80
2023-01-19T06:04:26.825Z,10.77
2023-01-19T06:09:29.239Z,14.83
2023-01-19T06:14:32.425Z,14.17
2023-01-19T06:19:35.028Z,13.67
2023-01-19T06:24:37.697Z,12.47
2023-01-19T06:29:40.137Z,10.93
2023-01-19T06:34:43.743Z,13.77
2023-01-19T06:39:45.947Z,20.90
2023-01-19T06:44:48.115Z,19.95
2023-01-19T06:54:52.371Z,24.20
2023-01-19T06:59:54.829Z,17.40
2023-01-19T07:04:57.475Z,13.05
2023-01-19T07:09:59.574Z,17.00
2023-01-19T07:15:01.688Z,17.60
2023-01-19T07:20:04.106Z,19.23
2023-01-19T07:25:06.748Z,16.65
2023-01-19T07:30:09.487Z,12.80
2023-01-19T07:35:11.748Z,21.35
2023-01-19T07:45:20.792Z,14.57
2023-01-19T07:50:25.546Z,14.73
2023-01-19T07:55:27.706Z,10.57
2023-01-19T08:00:29.737Z,13.13
2023-01-19T08:05:33.411Z,19.73
2023-01-19T08:10:35.606Z,21.50
2023-01-19T08:15:37.800Z,21.98
2023-01-19T08:20:39.965Z,22.08
2023-01-19T08:25:46.926Z,16.15
2023-01-19T08:30:54.471Z,20.87
2023-01-19T08:35:56.728Z,15.53
2023-01-19T08:40:58.793Z,19.92
2023-01-19T08:46:00.976Z,25.05
2023-01-19T08:51:03.278Z,19.10
2023-01-19T08:56:08.687Z,19.65
2023-01-19T09:01:14.722Z,18.20
2023-01-19T09:06:18.499Z,21.43
2023-01-19T09:11:20.754Z,26.20
2023-01-19T09:16:22.997Z,25.10
2023-01-19T09:21:25.231Z,21.87
2023-01-19T09:26:27.902Z,22.02
2023-01-19T09:31:30.124Z,17.43
2023-01-19T09:36:32.402Z,16.75
2023-01-19T09:41:36.558Z,17.17
2023-01-19T09:46:41.346Z,19.65
2023-01-19T09:51:50.192Z,15.75
2023-01-19T09:56:54.286Z,17.30
2023-01-19T10:02:14.146Z,14.20
2023-01-19T10:07:30.591Z,17.45
2023-01-19T10:13:08.163Z,14.20
2023-01-19T10:18:34.477Z,18.40
2023-01-19T10:23:54.561Z,15.53
2023-01-19T10:29:02.793Z,12.90
2023-01-19T10:34:04.997Z,15.60
2023-01-19T10:39:11.456Z,13.68
2023-01-19T10:44:35.450Z,14.60
2023-01-19T10:49:38.588Z,13.25
2023-01-19T10:54:43.941Z,9.20
2023-01-19T10:59:51.366Z,7.80
2023-01-19T11:05:30.065Z,6.10
2023-01-19T11:10:33.412Z,7.00
2023-01-19T11:15:48.389Z,4.60
2023-01-19T11:20:53.422Z,8.10
2023-01-19T11:25:58.785Z,7.60
2023-01-19T11:31:02.354Z,4.55
2023-01-19T11:36:26.575Z,3.85
2023-01-19T11:41:35.594Z,11.95
2023-01-19T11:46:41.006Z,3.80
2023-01-19T11:51:58.486Z,3.95
2023-01-19T11:57:02.195Z,3.60
2023-01-19T12:02:20.857Z,2.95
2023-01-19T12:07:29.352Z,4.75
2023-01-19T12:12:35.463Z,3.60
2023-01-19T12:17:45.487Z,4.35
2023-01-19T12:22:59.699Z,4.90
2023-01-19T12:28:02.949Z,5.75
2023-01-19T12:33:44.118Z,5.30
2023-01-19T12:38:54.037Z,9.23
2023-01-19T12:44:11.251Z,4.85
2023-01-19T12:49:37.367Z,3.40
2023-01-19T12:54:49.988Z,6.40
2023-01-19T12:59:58.325Z,6.78
2023-01-19T13:05:09.833Z,4.45
2023-01-19T13:10:49.567Z,3.70
2023-01-19T13:15:55.781Z,9.10
2023-01-19T13:21:09.337Z,5.07
2023-01-19T13:26:15.561Z,7.33
2023-01-19T13:31:18.515Z,8.15
2023-01-19T13:36:30.105Z,10.85
2023-01-19T13:41:37.608Z,6.75
2023-01-19T13:46:40.704Z,7.35
2023-01-19T13:51:43.165Z,6.60
2023-01-19T13:56:51.769Z,4.45
2023-01-19T14:01:54.237Z,6.00
2023-01-19T14:06:59.811Z,8.35
2023-01-19T14:12:05.357Z,4.60
2023-01-19T14:17:24.157Z,5.30
2023-01-19T14:22:38.825Z,8.85
2023-01-19T14:27:41.049Z,9.05
2023-01-19T14:32:47.596Z,5.62
2023-01-19T14:37:51.692Z,5.65
2023-01-19T14:42:57.963Z,5.45
2023-01-19T14:48:06.167Z,5.80
2023-01-19T14:53:27.710Z,6.45
2023-01-19T14:58:34.180Z,8.55
2023-01-19T15:03:45.458Z,7.45
2023-01-19T15:08:50.125Z,4.75
2023-01-19T15:13:52.950Z,7.70
2023-01-19T15:18:55.571Z,4.75
2023-01-19T15:23:58.479Z,5.87
2023-01-19T15:29:00.752Z,8.05
2023-01-19T15:34:02.924Z,4.47
2023-01-19T15:39:05.043Z,3.15
2023-01-19T15:44:10.071Z,6.12
2023-01-19T15:49:12.247Z,6.60
2023-01-19T15:54:15.221Z,3.08
2023-01-19T15:59:17.317Z,5.35
2023-01-19T16:04:19.422Z,6.75
2023-01-19T16:09:22.035Z,6.75
2023-01-19T16:19:26.329Z,10.13
2023-01-19T16:24:28.429Z,8.63
2023-01-19T16:29:31.328Z,5.43
2023-01-19T16:34:33.556Z,5.55
2023-01-19T16:39:36.126Z,5.95
2023-01-19T16:49:40.485Z,3.63
2023-01-19T16:54:43.561Z,8.88
2023-01-19T16:59:46.022Z,6.57
2023-01-19T17:09:50.265Z,3.55
2023-01-19T17:14:52.813Z,5.10
2023-01-19T17:19:54.974Z,4.57
2023-01-19T17:24:57.096Z,4.65
2023-01-19T17:29:59.217Z,7.43
2023-01-19T17:35:01.353Z,6.62
2023-01-19T17:40:04.159Z,5.68
2023-01-19T17:45:06.877Z,7.17
2023-01-19T17:50:09.465Z,8.75
2023-01-19T17:55:11.955Z,3.95
2023-01-19T18:05:17.570Z,7.57
2023-01-19T18:10:19.752Z,10.20
2023-01-19T18:15:21.855Z,6.75
2023-01-19T18:20:24.036Z,14.77
2023-01-19T18:25:26.178Z,15.77
2023-01-19T18:30:29.317Z,14.35
2023-01-19T18:35:31.431Z,13.27
2023-01-19T18:40:33.614Z,14.98
2023-01-19T18:45:38.101Z,15.13
2023-01-19T18:50:40.216Z,12.23
2023-01-19T18:55:57.070Z,10.48
2023-01-19T19:01:00.757Z,6.67
2023-01-19T19:06:04.046Z,9.27
2023-01-19T19:11:09.869Z,7.20
2023-01-19T19:16:13.449Z,16.65
2023-01-19T19:21:17.405Z,7.85
2023-01-19T19:26:19.869Z,11.70
2023-01-19T19:36:26.889Z,9.07
2023-01-19T19:41:29.926Z,8.35
2023-01-19T19:46:32.281Z,9.60
2023-01-19T19:51:34.529Z,12.77
2023-01-19T19:56:36.637Z,8.93
2023-01-19T20:01:38.942Z,14.82
2023-01-19T20:06:44.558Z,9.93
2023-01-19T20:11:48.922Z,9.90
2023-01-19T20:16:51.305Z,14.05
2023-01-19T20:21:53.861Z,11.52
2023-01-19T20:26:57.094Z,8.45
2023-01-19T20:31:59.439Z,8.95
2023-01-19T20:37:02.516Z,13.18
2023-01-19T20:42:06.337Z,13.60
2023-01-19T20:47:09.488Z,11.15
2023-01-19T20:52:11.591Z,11.70
2023-01-19T20:57:13.713Z,11.75
2023-01-19T21:02:16.791Z,15.88
2023-01-19T21:07:18.993Z,10.70
2023-01-19T21:12:22.863Z,8.88
2023-01-19T21:17:25.068Z,12.45
2023-01-19T21:22:27.206Z,13.13
2023-01-19T21:27:29.380Z,11.40
2023-01-19T21:32:31.775Z,9.20
2023-01-19T21:37:33.965Z,8.07
2023-01-19T21:42:36.513Z,12.98
2023-01-19T21:47:38.607Z,10.80
2023-01-19T21:52:41.143Z,16.65
2023-01-19T21:57:43.545Z,15.33
2023-01-19T22:08:06.444Z,12.00
2023-01-19T22:13:09.438Z,11.67
2023-01-19T22:18:11.556Z,14.83
2023-01-19T22:23:13.750Z,15.60
2023-01-19T22:28:16.248Z,17.10
2023-01-19T22:38:20.714Z,17.47
2023-01-19T22:43:22.754Z,15.13
2023-01-19T22:48:24.844Z,17.55
2023-01-19T22:53:27.348Z,14.00
2023-01-19T22:58:30.032Z,14.37
2023-01-19T23:03:32.196Z,14.43
2023-01-19T23:08:35.130Z,15.98
2023-01-19T23:13:37.274Z,10.67
2023-01-19T23:18:40.323Z,15.70
2023-01-19T23:23:43.292Z,12.93
2023-01-19T23:28:46.706Z,18.07
2023-01-19T23:33:50.222Z,14.23
2023-01-19T23:39:00.405Z,13.97
2023-01-19T23:44:03.576Z,15.80
2023-01-19T23:49:06.179Z,16.10
2023-01-19T23:54:08.377Z,14.80
2023-01-19T23:59:13.423Z,13.73
